createdAt,value
2019-02-21T00:00:30.956Z,99.99
2019-02-21T00:01:30.894Z,99.99
2019-02-21T00:02:30.827Z,99.99
2019-02-21T00:03:30.762Z,99.99
2019-02-21T00:04:30.696Z,99.99
2019-02-21T00:05:30.631Z,99.99
2019-02-21T00:06:30.571Z,99.99
2019-02-21T00:07:30.504Z,99.99
2019-02-21T00:08:30.439Z,99.99
2019-02-21T00:09:30.370Z,99.99
2019-02-21T00:10:30.303Z,99.99
2019-02-21T00:11:30.241Z,99.99
2019-02-21T00:12:30.173Z,99.99
2019-02-21T00:13:30.117Z,99.99
2019-02-21T00:14:30.046Z,99.99
2019-02-21T00:15:29.988Z,99.99
2019-02-21T00:16:29.913Z,99.99
2019-02-21T00:17:29.848Z,99.99
2019-02-21T00:18:29.782Z,99.99
2019-02-21T00:19:29.716Z,99.99
2019-02-21T00:20:29.653Z,99.99
2019-02-21T00:21:29.586Z,99.99
2019-02-21T00:22:29.522Z,99.99
2019-02-21T00:23:29.453Z,99.99
2019-02-21T00:24:29.390Z,99.99
2019-02-21T00:25:29.323Z,99.99
2019-02-21T00:26:29.269Z,99.99
2019-02-21T00:27:29.198Z,99.99
2019-02-21T00:28:29.128Z,99.99
2019-02-21T00:29:29.063Z,99.99
2019-02-21T00:30:35.130Z,99.99
2019-02-21T00:31:28.944Z,99.99
2019-02-21T00:32:28.875Z,99.99
2019-02-21T00:33:28.808Z,99.99
2019-02-21T00:34:28.733Z,99.99
2019-02-21T00:35:28.671Z,99.99
2019-02-21T00:36:28.604Z,99.99
2019-02-21T00:37:28.542Z,99.99
2019-02-21T00:38:28.477Z,99.99
2019-02-21T00:39:28.410Z,99.99
2019-02-21T00:40:28.346Z,99.99
2019-02-21T00:41:28.275Z,99.99
2019-02-21T00:42:28.220Z,99.99
2019-02-21T00:43:28.146Z,99.99
2019-02-21T00:44:28.084Z,99.99
2019-02-21T00:45:28.016Z,99.99
2019-02-21T00:46:27.949Z,99.99
2019-02-21T00:47:27.885Z,99.99
2019-02-21T00:48:27.821Z,99.99
2019-02-21T00:49:27.754Z,99.99
2019-02-21T00:50:27.696Z,99.99
2019-02-21T00:51:27.622Z,99.99
2019-02-21T00:52:27.561Z,99.99
2019-02-21T00:53:27.493Z,99.99
2019-02-21T00:54:27.429Z,99.99
2019-02-21T00:55:27.966Z,99.99
2019-02-21T00:56:27.296Z,99.99
2019-02-21T00:57:27.237Z,99.99
2019-02-21T00:58:27.161Z,99.99
2019-02-21T00:59:27.098Z,99.99
2019-02-21T01:00:27.032Z,99.99
2019-02-21T01:01:26.972Z,99.99
2019-02-21T01:02:26.903Z,99.99
2019-02-21T01:03:26.835Z,99.99
2019-02-21T01:04:26.771Z,99.99
2019-02-21T01:05:26.703Z,99.99
2019-02-21T01:06:26.642Z,99.99
2019-02-21T01:07:26.575Z,99.99
2019-02-21T01:08:26.510Z,99.99
2019-02-21T01:09:26.444Z,99.99
2019-02-21T01:10:26.373Z,99.99
2019-02-21T01:11:26.314Z,99.99
2019-02-21T01:12:26.252Z,99.99
2019-02-21T01:13:26.188Z,99.99
2019-02-21T01:14:26.115Z,99.99
2019-02-21T01:15:26.049Z,99.99
2019-02-21T01:16:25.987Z,99.99
2019-02-21T01:17:25.922Z,99.99
2019-02-21T01:18:25.854Z,99.99
2019-02-21T01:19:25.788Z,99.99
2019-02-21T01:20:25.730Z,99.99
2019-02-21T01:21:25.655Z,99.99
2019-02-21T01:22:25.598Z,99.99
2019-02-21T01:23:25.529Z,99.99
2019-02-21T01:24:25.488Z,99.99
2019-02-21T01:25:25.398Z,99.99
2019-02-21T01:26:25.334Z,99.99
2019-02-21T01:27:25.261Z,99.99
2019-02-21T01:28:25.199Z,99.99
2019-02-21T01:29:25.133Z,99.99
2019-02-21T01:30:25.067Z,99.99
2019-02-21T01:31:25.008Z,99.99
2019-02-21T01:32:24.938Z,99.99
2019-02-21T01:33:24.872Z,99.99
2019-02-21T01:34:24.807Z,99.99
2019-02-21T01:35:24.738Z,99.99
2019-02-21T01:36:24.681Z,99.99
2019-02-21T01:37:24.610Z,99.99
2019-02-21T01:38:24.545Z,99.99
2019-02-21T01:39:24.476Z,99.99
2019-02-21T01:40:24.415Z,99.99
2019-02-21T01:41:24.351Z,99.99
2019-02-21T01:42:24.282Z,99.99
2019-02-21T01:43:24.214Z,99.99
2019-02-21T01:44:24.150Z,99.99
2019-02-21T01:45:24.085Z,99.99
2019-02-21T01:46:24.016Z,99.99
2019-02-21T01:47:23.954Z,99.99
2019-02-21T01:48:23.895Z,99.99
2019-02-21T01:49:23.824Z,99.99
2019-02-21T01:50:23.764Z,99.99
2019-02-21T01:51:23.695Z,99.99
2019-02-21T01:52:23.631Z,99.99
2019-02-21T01:53:23.563Z,99.99
2019-02-21T01:54:23.496Z,99.99
2019-02-21T01:55:23.445Z,99.99
2019-02-21T01:56:23.363Z,99.99
2019-02-21T01:57:23.298Z,99.99
2019-02-21T01:58:23.233Z,99.99
2019-02-21T01:59:23.168Z,99.99
2019-02-21T02:00:23.108Z,99.99
2019-02-21T02:01:23.040Z,99.99
2019-02-21T02:02:22.984Z,99.99
2019-02-21T02:03:22.917Z,99.99
2019-02-21T02:04:22.841Z,99.99
2019-02-21T02:05:22.774Z,99.99
2019-02-21T02:06:22.771Z,99.99
2019-02-21T02:07:22.646Z,99.99
2019-02-21T02:08:22.579Z,99.99
2019-02-21T02:09:22.521Z,99.99
2019-02-21T02:10:22.443Z,99.99
2019-02-21T02:11:22.379Z,99.99
2019-02-21T02:12:22.334Z,99.99
2019-02-21T02:13:24.851Z,99.99
2019-02-21T02:14:22.184Z,99.99
2019-02-21T02:15:22.117Z,99.99
2019-02-21T02:16:22.064Z,99.99
2019-02-21T02:17:21.987Z,99.99
2019-02-21T02:18:21.921Z,99.99
2019-02-21T02:19:21.855Z,99.99
2019-02-21T02:20:21.789Z,99.99
2019-02-21T02:21:21.725Z,99.99
2019-02-21T02:22:21.660Z,99.99
2019-02-21T02:23:21.597Z,99.99
2019-02-21T02:24:21.533Z,99.99
2019-02-21T02:25:21.462Z,99.99
2019-02-21T02:26:21.400Z,99.99
2019-02-21T02:27:21.330Z,99.99
2019-02-21T02:28:21.264Z,99.99
2019-02-21T02:29:21.200Z,99.99
2019-02-21T02:30:21.147Z,99.99
2019-02-21T02:31:23.424Z,99.99
2019-02-21T02:32:21.004Z,99.99
2019-02-21T02:33:20.941Z,99.99
2019-02-21T02:34:20.872Z,99.99
2019-02-21T02:35:20.807Z,99.99
2019-02-21T02:36:20.741Z,99.99
2019-02-21T02:37:20.677Z,99.99
2019-02-21T02:38:20.609Z,99.99
2019-02-21T02:39:20.545Z,99.99
2019-02-21T02:40:20.501Z,99.99
2019-02-21T02:41:20.410Z,99.99
2019-02-21T02:42:20.349Z,99.99
2019-02-21T02:43:20.299Z,99.99
2019-02-21T02:44:20.213Z,99.99
2019-02-21T02:45:20.152Z,99.99
2019-02-21T02:46:20.084Z,99.99
2019-02-21T02:47:20.019Z,99.99
2019-02-21T02:48:19.957Z,99.99
2019-02-21T02:49:19.904Z,99.99
2019-02-21T02:50:19.824Z,99.99
2019-02-21T02:51:19.756Z,99.99
2019-02-21T02:52:19.690Z,99.99
2019-02-21T02:53:19.628Z,99.99
2019-02-21T02:54:19.559Z,99.99
2019-02-21T02:55:19.493Z,99.99
2019-02-21T02:56:19.432Z,99.99
2019-02-21T02:57:19.362Z,99.99
2019-02-21T02:58:19.295Z,99.99
2019-02-21T02:59:19.227Z,99.99
2019-02-21T03:00:19.167Z,99.99
2019-02-21T03:01:19.102Z,99.99
2019-02-21T03:02:19.075Z,99.99
2019-02-21T03:03:18.968Z,99.99
2019-02-21T03:04:18.914Z,99.99
2019-02-21T03:05:18.832Z,99.99
2019-02-21T03:06:18.785Z,99.99
2019-02-21T03:07:18.703Z,99.99
2019-02-21T03:08:18.640Z,99.99
2019-02-21T03:09:18.572Z,99.99
2019-02-21T03:10:18.510Z,99.99
2019-02-21T03:11:18.440Z,99.99
2019-02-21T03:12:18.368Z,99.99
2019-02-21T03:13:18.324Z,99.99
2019-02-21T03:14:18.253Z,99.99
2019-02-21T03:15:18.174Z,99.99
2019-02-21T03:16:18.110Z,99.99
2019-02-21T03:17:18.048Z,99.99
2019-02-21T03:18:17.982Z,99.99
2019-02-21T03:19:17.916Z,99.99
2019-02-21T03:20:17.855Z,99.99
2019-02-21T03:21:17.788Z,99.99
2019-02-21T03:22:17.718Z,99.99
2019-02-21T03:23:17.650Z,99.99
2019-02-21T03:24:17.592Z,99.99
2019-02-21T03:25:17.521Z,99.99
2019-02-21T03:26:17.458Z,99.99
2019-02-21T03:27:17.397Z,99.99
2019-02-21T03:28:17.329Z,99.99
2019-02-21T03:29:17.264Z,99.99
2019-02-21T03:30:17.193Z,99.99
2019-02-21T03:31:17.145Z,99.99
2019-02-21T03:32:17.060Z,99.99
2019-02-21T03:33:16.993Z,99.99
2019-02-21T03:34:16.937Z,99.99
2019-02-21T03:35:16.858Z,99.99
2019-02-21T03:36:16.791Z,99.99
2019-02-21T03:37:16.729Z,99.99
2019-02-21T03:38:16.664Z,99.99
2019-02-21T03:39:16.594Z,99.99
2019-02-21T03:40:16.531Z,99.99
2019-02-21T03:41:16.463Z,99.99
2019-02-21T03:42:16.408Z,99.99
2019-02-21T03:43:16.325Z,99.99
2019-02-21T03:44:16.260Z,99.99
2019-02-21T03:45:16.193Z,99.99
2019-02-21T03:46:16.127Z,99.99
2019-02-21T03:47:16.069Z,99.99
2019-02-21T03:48:16.000Z,99.99
2019-02-21T03:49:15.947Z,99.99
2019-02-21T03:50:15.864Z,99.99
2019-02-21T03:51:15.795Z,99.99
2019-02-21T03:52:15.729Z,99.99
2019-02-21T03:53:15.671Z,99.99
2019-02-21T03:54:15.604Z,99.99
2019-02-21T03:55:15.533Z,99.99
2019-02-21T03:56:15.477Z,99.99
2019-02-21T03:57:15.399Z,99.99
2019-02-21T03:58:15.331Z,99.99
2019-02-21T03:59:15.273Z,99.99
2019-02-21T04:00:15.206Z,99.99
2019-02-21T04:01:15.142Z,99.99
2019-02-21T04:02:15.091Z,99.99
2019-02-21T04:03:15.008Z,99.99
2019-02-21T04:04:14.946Z,99.99
2019-02-21T04:05:14.870Z,99.99
2019-02-21T04:06:14.802Z,99.99
2019-02-21T04:07:14.736Z,99.99
2019-02-21T04:08:14.663Z,99.99
2019-02-21T04:09:14.602Z,99.99
2019-02-21T04:10:14.547Z,99.99
2019-02-21T04:11:14.469Z,99.99
2019-02-21T04:12:14.402Z,99.99
2019-02-21T04:13:15.310Z,99.99
2019-02-21T04:14:14.272Z,99.99
2019-02-21T04:15:14.211Z,99.99
2019-02-21T04:16:14.141Z,99.99
2019-02-21T04:17:14.082Z,99.99
2019-02-21T04:18:14.005Z,99.99
2019-02-21T04:19:13.935Z,99.99
2019-02-21T04:20:13.872Z,99.99
2019-02-21T04:21:13.808Z,99.99
2019-02-21T04:22:13.793Z,99.99
2019-02-21T04:23:13.674Z,99.99
2019-02-21T04:24:13.611Z,99.99
2019-02-21T04:25:13.540Z,99.99
2019-02-21T04:26:13.474Z,99.99
2019-02-21T04:27:13.406Z,99.99
2019-02-21T04:28:13.342Z,99.99
2019-02-21T04:29:13.272Z,99.99
2019-02-21T04:30:13.206Z,99.99
2019-02-21T04:31:13.144Z,99.99
2019-02-21T04:32:16.941Z,99.99
2019-02-21T04:33:13.008Z,99.99
2019-02-21T04:34:12.945Z,99.99
2019-02-21T04:35:12.879Z,99.99
2019-02-21T04:36:12.813Z,99.99
2019-02-21T04:37:12.743Z,99.99
2019-02-21T04:38:12.673Z,99.99
2019-02-21T04:39:12.606Z,99.99
2019-02-21T04:40:12.554Z,99.99
2019-02-21T04:41:12.482Z,99.99
2019-02-21T04:42:12.411Z,99.99
2019-02-21T04:43:12.342Z,99.99
2019-02-21T04:44:12.276Z,99.99
2019-02-21T04:45:12.210Z,99.99
2019-02-21T04:46:12.153Z,99.99
2019-02-21T04:47:12.088Z,99.99
2019-02-21T04:48:12.016Z,99.99
2019-02-21T04:49:11.950Z,99.99
2019-02-21T04:50:11.885Z,99.99
2019-02-21T04:51:11.808Z,99.99
2019-02-21T04:52:11.745Z,99.99
2019-02-21T04:53:11.678Z,99.99
2019-02-21T04:54:11.616Z,99.99
2019-02-21T04:55:11.554Z,99.99
2019-02-21T04:56:11.499Z,99.99
2019-02-21T04:57:11.411Z,99.99
2019-02-21T04:58:11.350Z,99.99
2019-02-21T04:59:11.285Z,99.99
2019-02-21T05:00:11.225Z,99.99
2019-02-21T05:01:11.141Z,99.99
2019-02-21T05:02:11.085Z,99.99
2019-02-21T05:03:11.025Z,99.99
2019-02-21T05:04:10.947Z,99.99
2019-02-21T05:05:10.879Z,99.99
2019-02-21T05:06:10.814Z,99.99
2019-02-21T05:07:10.751Z,99.99
2019-02-21T05:08:10.683Z,99.99
2019-02-21T05:09:10.614Z,99.99
2019-02-21T05:10:10.547Z,99.99
2019-02-21T05:11:10.483Z,99.99
2019-02-21T05:12:10.414Z,99.99
2019-02-21T05:13:10.350Z,99.99
2019-02-21T05:14:10.284Z,99.99
2019-02-21T05:15:10.212Z,99.99
2019-02-21T05:16:10.152Z,99.99
2019-02-21T05:17:10.083Z,99.99
2019-02-21T05:18:10.016Z,99.99
2019-02-21T05:19:09.952Z,99.99
2019-02-21T05:20:09.884Z,99.99
2019-02-21T05:21:09.821Z,99.99
2019-02-21T05:22:09.752Z,99.99
2019-02-21T05:23:09.684Z,99.99
2019-02-21T05:24:09.619Z,99.99
2019-02-21T05:25:09.555Z,99.99
2019-02-21T05:26:09.488Z,99.99
2019-02-21T05:27:09.466Z,99.99
2019-02-21T05:28:09.353Z,99.99
2019-02-21T05:29:09.280Z,99.99
2019-02-21T05:30:09.219Z,99.99
2019-02-21T05:31:09.155Z,99.99
2019-02-21T05:32:09.084Z,99.99
2019-02-21T05:33:09.019Z,99.99
2019-02-21T05:34:08.952Z,99.99
2019-02-21T05:35:08.888Z,99.99
2019-02-21T05:36:08.818Z,99.99
2019-02-21T05:37:08.754Z,99.99
2019-02-21T05:38:08.687Z,99.99
2019-02-21T05:39:08.621Z,99.99
2019-02-21T05:40:08.558Z,99.99
2019-02-21T05:41:08.487Z,99.99
2019-02-21T05:42:08.420Z,99.99
2019-02-21T05:43:08.354Z,99.99
2019-02-21T05:44:08.288Z,99.99
2019-02-21T05:45:10.760Z,99.99
2019-02-21T05:46:08.156Z,99.99
2019-02-21T05:47:08.091Z,99.99
2019-02-21T05:48:08.019Z,99.99
2019-02-21T05:49:07.956Z,99.99
2019-02-21T05:50:07.886Z,99.99
2019-02-21T05:51:07.821Z,99.99
2019-02-21T05:52:07.757Z,99.99
2019-02-21T05:53:07.689Z,99.99
2019-02-21T05:54:07.619Z,99.99
2019-02-21T05:55:07.552Z,99.99
2019-02-21T05:56:07.485Z,99.99
2019-02-21T05:57:07.422Z,99.99
2019-02-21T05:58:07.352Z,99.99
2019-02-21T05:59:07.288Z,99.99
2019-02-21T06:00:07.221Z,99.99
2019-02-21T06:01:07.165Z,99.99
2019-02-21T06:02:07.088Z,99.99
2019-02-21T06:03:07.022Z,99.99
2019-02-21T06:04:06.968Z,99.99
2019-02-21T06:05:08.823Z,99.99
2019-02-21T06:06:06.831Z,99.99
2019-02-21T06:07:09.657Z,99.99
2019-02-21T06:08:06.692Z,99.99
2019-02-21T06:09:06.620Z,99.99
2019-02-21T06:10:06.555Z,99.99
2019-02-21T06:11:06.496Z,99.99
2019-02-21T06:12:06.426Z,99.99
2019-02-21T06:13:06.368Z,99.99
2019-02-21T06:14:06.300Z,99.99
2019-02-21T06:15:06.222Z,99.99
2019-02-21T06:16:06.153Z,99.99
2019-02-21T06:17:06.085Z,99.99
2019-02-21T06:18:06.017Z,99.99
2019-02-21T06:19:05.951Z,99.99
2019-02-21T06:20:05.881Z,99.99
2019-02-21T06:21:05.839Z,99.99
2019-02-21T06:22:10.469Z,99.99
2019-02-21T06:23:05.684Z,99.99
2019-02-21T06:24:05.616Z,99.99
2019-02-21T06:25:05.556Z,99.99
2019-02-21T06:26:05.491Z,99.99
2019-02-21T06:27:05.417Z,99.99
2019-02-21T06:28:05.351Z,99.99
2019-02-21T06:29:05.284Z,99.99
2019-02-21T06:30:05.226Z,99.99
2019-02-21T06:31:05.160Z,99.99
2019-02-21T06:32:13.776Z,99.99
2019-02-21T06:33:05.581Z,99.99
2019-02-21T06:34:04.951Z,99.99
2019-02-21T06:35:04.881Z,99.99
2019-02-21T06:36:04.818Z,99.99
2019-02-21T06:37:04.749Z,99.99
2019-02-21T06:38:04.699Z,99.99
2019-02-21T06:39:04.616Z,99.99
2019-02-21T06:40:04.549Z,99.99
2019-02-21T06:41:04.480Z,99.99
2019-02-21T06:42:04.415Z,99.99
2019-02-21T06:43:04.350Z,99.99
2019-02-21T06:44:04.280Z,99.99
2019-02-21T06:45:04.227Z,99.99
2019-02-21T06:46:04.153Z,99.99
2019-02-21T06:47:04.083Z,99.99
2019-02-21T06:48:04.017Z,99.99
2019-02-21T06:49:03.949Z,99.99
2019-02-21T06:50:03.879Z,99.99
2019-02-21T06:51:03.811Z,99.99
2019-02-21T06:52:03.747Z,99.99
2019-02-21T06:53:03.697Z,99.99
2019-02-21T06:54:03.619Z,99.99
2019-02-21T06:55:03.558Z,99.99
2019-02-21T06:56:03.486Z,99.99
2019-02-21T06:57:03.421Z,99.99
2019-02-21T06:58:03.349Z,99.99
2019-02-21T06:59:03.282Z,99.99
2019-02-21T07:00:03.261Z,99.99
2019-02-21T07:01:03.154Z,99.99
2019-02-21T07:02:03.094Z,99.99
2019-02-21T07:03:03.029Z,99.99
2019-02-21T07:04:02.949Z,99.99
2019-02-21T07:05:02.883Z,99.99
2019-02-21T07:06:02.816Z,99.99
2019-02-21T07:07:02.755Z,99.99
2019-02-21T07:08:02.690Z,99.99
2019-02-21T07:09:02.615Z,99.99
2019-02-21T07:10:02.566Z,99.99
2019-02-21T07:11:06.288Z,99.99
2019-02-21T07:12:02.417Z,99.99
2019-02-21T07:13:02.350Z,99.99
2019-02-21T07:14:02.283Z,99.99
2019-02-21T07:15:02.215Z,99.99
2019-02-21T07:16:02.146Z,99.99
2019-02-21T07:17:02.083Z,99.99
2019-02-21T07:18:02.024Z,99.99
2019-02-21T07:19:01.950Z,99.99
2019-02-21T07:20:01.885Z,99.99
2019-02-21T07:21:01.819Z,99.99
2019-02-21T07:22:01.769Z,99.99
2019-02-21T07:23:01.682Z,99.99
2019-02-21T07:24:01.619Z,99.99
2019-02-21T07:25:01.552Z,99.99
2019-02-21T07:26:01.486Z,99.99
2019-02-21T07:27:01.417Z,99.99
2019-02-21T07:28:11.165Z,99.99
2019-02-21T07:29:01.284Z,99.99
2019-02-21T07:30:01.218Z,99.99
2019-02-21T07:31:01.154Z,99.99
2019-02-21T07:32:01.087Z,99.99
2019-02-21T07:33:01.029Z,99.99
2019-02-21T07:34:01.763Z,99.99
2019-02-21T07:35:00.889Z,99.99
2019-02-21T07:36:00.831Z,99.99
2019-02-21T07:37:00.754Z,99.99
2019-02-21T07:38:00.691Z,99.99
2019-02-21T07:39:13.621Z,99.99
2019-02-21T07:40:00.564Z,99.99
2019-02-21T07:41:00.599Z,99.99
2019-02-21T07:42:00.423Z,99.99
2019-02-21T07:43:00.361Z,99.99
2019-02-21T07:44:11.373Z,99.99
2019-02-21T07:45:00.447Z,99.99
2019-02-21T07:46:00.161Z,99.99
2019-02-21T07:47:00.109Z,99.99
2019-02-21T07:48:00.033Z,99.99
2019-02-21T07:48:59.963Z,99.99
2019-02-21T07:49:59.906Z,99.99
2019-02-21T07:50:59.829Z,99.99
2019-02-21T07:51:59.764Z,99.99
2019-02-21T07:53:02.352Z,99.99
2019-02-21T07:53:59.632Z,99.99
2019-02-21T07:55:02.133Z,99.99
2019-02-21T07:55:59.500Z,99.99
2019-02-21T07:57:01.789Z,99.99
2019-02-21T07:57:59.363Z,99.99
2019-02-21T07:58:59.298Z,99.99
2019-02-21T07:59:59.239Z,99.99
2019-02-21T08:00:59.176Z,99.99
2019-02-21T08:01:59.112Z,99.99
2019-02-21T08:02:59.038Z,99.99
2019-02-21T08:03:58.971Z,99.99
2019-02-21T08:04:58.958Z,99.99
2019-02-21T08:05:58.859Z,99.99
2019-02-21T08:06:58.789Z,99.99
2019-02-21T08:07:58.706Z,99.99
2019-02-21T08:08:58.639Z,99.99
2019-02-21T08:09:58.575Z,99.99
2019-02-21T08:10:58.509Z,99.99
2019-02-21T08:11:58.453Z,99.99
2019-02-21T08:12:58.383Z,99.99
2019-02-21T08:13:58.312Z,99.99
2019-02-21T08:14:58.248Z,99.99
2019-02-21T08:15:58.180Z,99.99
2019-02-21T08:16:58.116Z,99.99
2019-02-21T08:17:58.051Z,99.99
2019-02-21T08:18:57.980Z,99.99
2019-02-21T08:20:07.856Z,99.99
2019-02-21T08:20:57.857Z,99.99
2019-02-21T08:22:00.066Z,99.99
2019-02-21T08:22:57.729Z,99.99
2019-02-21T08:23:59.283Z,99.99
2019-02-21T08:24:57.591Z,99.99
2019-02-21T08:25:57.528Z,99.99
2019-02-21T08:26:57.462Z,99.99
2019-02-21T08:27:57.399Z,99.99
2019-02-21T08:28:57.330Z,99.99
2019-02-21T08:29:57.294Z,99.99
2019-02-21T08:30:58.105Z,99.99
2019-02-21T08:31:57.129Z,99.99
2019-02-21T08:32:57.065Z,99.99
2019-02-21T08:33:58.759Z,99.99
2019-02-21T08:34:56.930Z,99.99
2019-02-21T08:35:57.909Z,99.99
2019-02-21T08:36:56.807Z,99.99
2019-02-21T08:37:56.807Z,99.99
2019-02-21T08:38:56.675Z,99.99
2019-02-21T08:39:56.608Z,99.99
2019-02-21T08:40:57.279Z,99.99
2019-02-21T08:41:56.478Z,99.99
2019-02-21T08:42:56.417Z,99.99
2019-02-21T08:43:57.461Z,99.99
2019-02-21T08:44:56.284Z,99.99
2019-02-21T08:45:57.590Z,99.99
2019-02-21T08:46:56.151Z,99.99
2019-02-21T08:47:56.085Z,99.99
2019-02-21T08:48:56.019Z,99.99
2019-02-21T08:49:55.962Z,99.99
2019-02-21T08:50:55.951Z,99.99
2019-02-21T08:51:55.850Z,99.99
2019-02-21T08:52:55.761Z,99.99
2019-02-21T08:53:55.696Z,99.99
2019-02-21T08:55:00.101Z,99.99
2019-02-21T08:55:56.101Z,99.99
2019-02-21T08:56:55.505Z,99.99
2019-02-21T08:57:55.436Z,99.99
2019-02-21T08:58:55.369Z,99.98
2019-02-21T08:59:55.308Z,99.65
2019-02-21T09:00:55.241Z,98.50
2019-02-21T09:01:55.178Z,98.22
2019-02-21T09:02:55.109Z,98.41
2019-02-21T09:03:55.046Z,97.55
2019-02-21T09:04:54.993Z,97.74
2019-02-21T09:05:54.922Z,97.55
2019-02-21T09:06:54.850Z,97.55
2019-02-21T09:07:54.784Z,96.89
2019-02-21T09:08:54.723Z,97.74
2019-02-21T09:09:54.661Z,97.74
2019-02-21T09:10:54.595Z,98.36
2019-02-21T09:11:54.526Z,97.79
2019-02-21T09:12:54.461Z,97.60
2019-02-21T09:13:55.823Z,98.74
2019-02-21T09:14:54.340Z,98.65
2019-02-21T09:15:55.893Z,98.65
2019-02-21T09:16:54.205Z,98.93
2019-02-21T09:17:54.585Z,98.88
2019-02-21T09:18:54.073Z,98.13
2019-02-21T09:19:54.014Z,98.22
2019-02-21T09:20:53.949Z,97.46
2019-02-21T09:21:53.888Z,97.17
2019-02-21T09:22:53.822Z,96.98
2019-02-21T09:23:56.467Z,96.89
2019-02-21T09:24:53.698Z,96.70
2019-02-21T09:25:53.633Z,97.08
2019-02-21T09:26:53.564Z,97.17
2019-02-21T09:27:53.499Z,97.93
2019-02-21T09:28:53.434Z,98.32
2019-02-21T09:29:53.370Z,98.79
2019-02-21T09:30:53.305Z,98.79
2019-02-21T09:31:53.239Z,99.08
2019-02-21T09:32:53.189Z,98.98
2019-02-21T09:33:53.110Z,99.08
2019-02-21T09:34:53.055Z,99.08
2019-02-21T09:35:52.979Z,98.98
2019-02-21T09:36:52.917Z,98.88
2019-02-21T09:37:52.868Z,98.13
2019-02-21T09:38:52.795Z,98.50
2019-02-21T09:39:52.723Z,98.03
2019-02-21T09:40:52.664Z,98.22
2019-02-21T09:41:52.593Z,98.22
2019-02-21T09:42:52.533Z,97.65
2019-02-21T09:43:52.465Z,97.65
2019-02-21T09:44:52.405Z,97.36
2019-02-21T09:45:52.338Z,97.41
2019-02-21T09:46:52.272Z,97.03
2019-02-21T09:47:52.210Z,96.17
2019-02-21T09:48:52.174Z,96.17
2019-02-21T09:49:52.081Z,95.79
2019-02-21T09:50:52.016Z,96.36
2019-02-21T09:51:51.955Z,96.17
2019-02-21T09:52:51.894Z,96.17
2019-02-21T09:53:51.825Z,96.36
2019-02-21T09:54:51.763Z,96.17
2019-02-21T09:55:51.696Z,96.75
2019-02-21T09:56:53.073Z,97.51
2019-02-21T09:57:51.581Z,97.46
2019-02-21T09:58:51.500Z,97.22
2019-02-21T09:59:51.438Z,97.03
2019-02-21T10:00:51.381Z,96.75
2019-02-21T10:01:51.308Z,97.03
2019-02-21T10:02:54.306Z,96.36
2019-02-21T10:03:51.181Z,96.17
2019-02-21T10:04:51.116Z,96.27
2019-02-21T10:05:51.055Z,96.08
2019-02-21T10:06:50.987Z,96.94
2019-02-21T10:07:50.922Z,96.65
2019-02-21T10:08:50.856Z,96.75
2019-02-21T10:09:50.797Z,97.31
2019-02-21T10:10:50.731Z,96.94
2019-02-21T10:11:50.665Z,97.03
2019-02-21T10:12:50.604Z,96.94
2019-02-21T10:13:50.540Z,97.13
2019-02-21T10:14:50.476Z,96.75
2019-02-21T10:15:50.540Z,96.75
2019-02-21T10:16:50.365Z,96.65
2019-02-21T10:17:50.975Z,96.94
2019-02-21T10:18:50.255Z,95.94
2019-02-21T10:19:50.162Z,96.51
2019-02-21T10:20:50.089Z,96.03
2019-02-21T10:21:50.026Z,96.03
2019-02-21T10:22:49.961Z,95.84
2019-02-21T10:23:49.897Z,96.41
2019-02-21T10:24:50.284Z,96.22
2019-02-21T10:25:49.771Z,96.22
2019-02-21T10:26:49.708Z,96.22
2019-02-21T10:27:49.645Z,96.22
2019-02-21T10:28:49.580Z,96.22
2019-02-21T10:29:49.515Z,95.75
2019-02-21T10:30:49.450Z,95.70
2019-02-21T10:31:49.402Z,95.22
2019-02-21T10:32:49.332Z,95.22
2019-02-21T10:33:49.270Z,93.70
2019-02-21T10:34:49.201Z,94.17
2019-02-21T10:35:49.132Z,94.17
2019-02-21T10:36:49.065Z,93.98
2019-02-21T10:37:49.002Z,94.08
2019-02-21T10:38:48.940Z,94.08
2019-02-21T10:39:48.875Z,94.37
2019-02-21T10:40:48.813Z,94.17
2019-02-21T10:41:48.822Z,93.98
2019-02-21T10:42:48.683Z,93.51
2019-02-21T10:43:48.623Z,93.27
2019-02-21T10:44:48.558Z,92.50
2019-02-21T10:45:48.495Z,92.32
2019-02-21T10:46:48.441Z,92.69
2019-02-21T10:47:48.366Z,92.69
2019-02-21T10:48:48.302Z,92.41
2019-02-21T10:49:48.237Z,93.27
2019-02-21T10:50:48.174Z,93.36
2019-02-21T10:51:48.115Z,92.88
2019-02-21T10:52:48.050Z,92.32
2019-02-21T10:53:47.986Z,92.22
2019-02-21T10:54:47.923Z,91.64
2019-02-21T10:55:48.152Z,91.93
2019-02-21T10:56:47.799Z,91.74
2019-02-21T10:57:47.730Z,90.98
2019-02-21T10:58:47.666Z,91.83
2019-02-21T10:59:47.608Z,91.83
2019-02-21T11:00:47.548Z,91.36
2019-02-21T11:01:47.479Z,91.27
2019-02-21T11:02:47.427Z,91.12
2019-02-21T11:03:47.346Z,90.69
2019-02-21T11:04:54.946Z,90.26
2019-02-21T11:05:47.224Z,89.83
2019-02-21T11:06:47.164Z,90.03
2019-02-21T11:07:47.095Z,89.97
2019-02-21T11:08:47.076Z,89.17
2019-02-21T11:09:46.971Z,89.07
2019-02-21T11:10:46.907Z,89.40
2019-02-21T11:11:46.846Z,89.78
2019-02-21T11:12:46.779Z,89.40
2019-02-21T11:13:46.720Z,89.02
2019-02-21T11:14:47.802Z,88.73
2019-02-21T11:15:46.595Z,88.64
2019-02-21T11:16:46.533Z,88.64
2019-02-21T11:17:46.469Z,88.73
2019-02-21T11:18:46.405Z,88.01
2019-02-21T11:19:46.349Z,87.59
2019-02-21T11:20:46.290Z,87.78
2019-02-21T11:21:46.216Z,87.78
2019-02-21T11:22:46.163Z,87.35
2019-02-21T11:23:46.095Z,87.15
2019-02-21T11:24:46.044Z,86.77
2019-02-21T11:25:45.960Z,86.77
2019-02-21T11:26:45.899Z,86.20
2019-02-21T11:27:45.845Z,85.82
2019-02-21T11:28:47.252Z,85.58
2019-02-21T11:29:45.712Z,85.68
2019-02-21T11:30:45.644Z,85.68
2019-02-21T11:31:45.584Z,85.68
2019-02-21T11:32:45.527Z,84.96
2019-02-21T11:33:45.460Z,85.25
2019-02-21T11:34:45.415Z,85.53
2019-02-21T11:35:45.336Z,85.82
2019-02-21T11:36:45.272Z,85.82
2019-02-21T11:37:47.160Z,85.72
2019-02-21T11:38:45.189Z,84.86
2019-02-21T11:39:45.092Z,85.05
2019-02-21T11:40:45.021Z,84.86
2019-02-21T11:41:44.965Z,84.86
2019-02-21T11:42:44.898Z,84.67
2019-02-21T11:43:44.839Z,84.86
2019-02-21T11:44:44.771Z,84.77
2019-02-21T11:45:53.398Z,84.67
2019-02-21T11:46:44.661Z,84.58
2019-02-21T11:47:44.582Z,84.00
2019-02-21T11:48:44.518Z,84.10
2019-02-21T11:49:44.470Z,84.10
2019-02-21T11:50:44.394Z,84.29
2019-02-21T11:51:44.330Z,84.00
2019-02-21T11:52:44.269Z,83.95
2019-02-21T11:53:44.206Z,83.76
2019-02-21T11:54:44.142Z,83.18
2019-02-21T11:55:44.081Z,83.57
2019-02-21T11:56:44.023Z,82.90
2019-02-21T11:57:43.962Z,83.00
2019-02-21T11:58:43.894Z,83.67
2019-02-21T11:59:43.840Z,83.47
2019-02-21T12:00:43.768Z,84.14
2019-02-21T12:01:43.701Z,84.14
2019-02-21T12:02:43.647Z,83.91
2019-02-21T12:03:43.588Z,83.62
2019-02-21T12:04:43.517Z,84.00
2019-02-21T12:05:43.454Z,84.10
2019-02-21T12:06:43.475Z,83.53
2019-02-21T12:07:43.329Z,84.29
2019-02-21T12:08:43.270Z,84.20
2019-02-21T12:09:43.206Z,84.10
2019-02-21T12:10:43.152Z,84.10
2019-02-21T12:11:43.083Z,83.62
2019-02-21T12:12:43.014Z,83.05
2019-02-21T12:13:42.970Z,83.53
2019-02-21T12:14:42.892Z,84.00
2019-02-21T12:15:42.855Z,83.91
2019-02-21T12:16:42.768Z,84.20
2019-02-21T12:17:43.272Z,84.20
2019-02-21T12:18:42.638Z,83.62
2019-02-21T12:19:42.578Z,83.47
2019-02-21T12:20:42.526Z,83.14
2019-02-21T12:21:42.453Z,83.34
2019-02-21T12:22:42.391Z,83.34
2019-02-21T12:23:42.325Z,83.53
2019-02-21T12:24:42.267Z,83.34
2019-02-21T12:25:42.205Z,83.53
2019-02-21T12:26:42.141Z,83.43
2019-02-21T12:27:42.077Z,83.47
2019-02-21T12:28:42.019Z,83.43
2019-02-21T12:29:41.953Z,84.14
2019-02-21T12:30:41.892Z,83.57
2019-02-21T12:31:41.831Z,83.09
2019-02-21T12:32:41.805Z,84.23
2019-02-21T12:33:41.715Z,84.14
2019-02-21T12:34:41.671Z,83.57
2019-02-21T12:35:41.607Z,83.47
2019-02-21T12:36:41.518Z,83.24
2019-02-21T12:37:41.465Z,82.61
2019-02-21T12:38:41.411Z,82.81
2019-02-21T12:39:41.334Z,82.32
2019-02-21T12:40:41.275Z,81.85
2019-02-21T12:41:41.206Z,80.61
2019-02-21T12:42:41.157Z,80.32
2019-02-21T12:43:41.077Z,80.41
2019-02-21T12:44:41.016Z,80.41
2019-02-21T12:45:40.954Z,79.85
2019-02-21T12:46:40.902Z,80.70
2019-02-21T12:47:49.525Z,80.41
2019-02-21T12:48:40.765Z,79.85
2019-02-21T12:49:40.702Z,79.75
2019-02-21T12:50:44.369Z,79.08
2019-02-21T12:51:40.575Z,79.27